createdAt,value
2022-11-05T00:00:44.638Z,11.64
2022-11-05T00:03:29.826Z,11.68
2022-11-05T00:06:15.296Z,11.59
2022-11-05T00:09:00.906Z,11.43
2022-11-05T00:11:46.081Z,11.65
2022-11-05T00:14:31.306Z,11.32
2022-11-05T00:16:57.863Z,11.34
2022-11-05T00:19:24.500Z,11.49
2022-11-05T00:22:09.461Z,11.61
2022-11-05T00:24:54.730Z,12.01
2022-11-05T00:27:21.268Z,12.05
2022-11-05T00:29:47.869Z,11.61
2022-11-05T00:32:14.496Z,11.49
2022-11-05T00:34:41.079Z,12.08
2022-11-05T00:37:07.612Z,12.17
2022-11-05T00:39:34.188Z,11.88
2022-11-05T00:42:19.061Z,11.70
2022-11-05T00:45:00.841Z,11.54
2022-11-05T00:47:46.284Z,11.55
2022-11-05T00:50:13.542Z,11.55
2022-11-05T00:52:58.725Z,11.57
2022-11-05T00:55:28.389Z,11.62
2022-11-05T00:57:56.195Z,11.76
2022-11-05T01:00:24.300Z,11.89
2022-11-05T01:02:51.252Z,11.78
2022-11-05T01:05:18.125Z,11.68
2022-11-05T01:07:44.710Z,11.78
2022-11-05T01:10:11.315Z,12.38
2022-11-05T01:12:37.893Z,12.06
2022-11-05T01:15:05.190Z,12.00
2022-11-05T01:17:31.763Z,11.89
2022-11-05T01:19:58.343Z,11.97
2022-11-05T01:22:24.921Z,12.58
2022-11-05T01:24:51.532Z,11.87
2022-11-05T01:27:18.146Z,11.68
2022-11-05T01:29:44.682Z,11.87
2022-11-05T01:32:11.325Z,12.49
2022-11-05T01:34:37.904Z,12.19
2022-11-05T01:37:04.503Z,11.84
2022-11-05T01:39:31.098Z,11.82
2022-11-05T01:41:58.826Z,11.83
2022-11-05T01:44:47.921Z,11.60
2022-11-05T01:47:33.258Z,11.62
2022-11-05T01:50:05.106Z,11.15
2022-11-05T01:52:34.618Z,11.29
2022-11-05T01:55:02.915Z,11.78
2022-11-05T01:57:30.873Z,11.65
2022-11-05T02:00:00.530Z,11.39
2022-11-05T02:02:29.142Z,11.50
2022-11-05T02:05:01.082Z,11.21
2022-11-05T02:07:29.297Z,11.10
2022-11-05T02:10:20.931Z,11.25
2022-11-05T02:12:48.484Z,11.46
2022-11-05T02:15:24.339Z,11.20
2022-11-05T02:18:17.251Z,11.91
2022-11-05T02:21:34.717Z,11.39
2022-11-05T02:24:45.371Z,11.89
2022-11-05T02:28:08.618Z,11.30
2022-11-05T02:30:43.997Z,11.30
2022-11-05T02:33:22.121Z,11.97
2022-11-05T02:36:10.357Z,12.18
2022-11-05T02:39:10.789Z,11.64
2022-11-05T02:41:49.023Z,11.71
2022-11-05T02:44:27.816Z,11.46
2022-11-05T02:47:04.821Z,11.09
2022-11-05T02:49:45.768Z,11.09
2022-11-05T02:52:28.645Z,11.39
2022-11-05T02:55:10.344Z,11.42
2022-11-05T02:57:37.247Z,11.73
2022-11-05T03:00:08.472Z,11.78
2022-11-05T03:02:35.523Z,11.64
2022-11-05T03:05:03.128Z,11.03
2022-11-05T03:07:48.115Z,11.49
2022-11-05T03:10:14.608Z,11.26
2022-11-05T03:12:46.892Z,11.24
2022-11-05T03:15:45.827Z,10.84
2022-11-05T03:18:37.326Z,11.27
2022-11-05T03:21:15.513Z,10.96
2022-11-05T03:24:03.829Z,11.08
2022-11-05T03:26:35.479Z,10.87
2022-11-05T03:29:18.449Z,10.84
2022-11-05T03:31:49.194Z,10.57
2022-11-05T03:34:19.985Z,10.48
2022-11-05T03:36:52.114Z,10.52
2022-11-05T03:39:30.276Z,10.64
2022-11-05T03:41:59.039Z,10.57
2022-11-05T03:44:30.852Z,11.00
2022-11-05T03:47:03.885Z,11.06
2022-11-05T03:49:35.955Z,10.90
2022-11-05T03:52:17.342Z,10.53
2022-11-05T03:54:44.543Z,10.40
2022-11-05T03:57:18.434Z,10.51
2022-11-05T03:59:48.558Z,10.31
2022-11-05T04:02:18.507Z,10.86
2022-11-05T04:04:45.574Z,10.88
2022-11-05T04:07:31.289Z,11.37
2022-11-05T04:10:16.900Z,11.20
2022-11-05T04:13:02.077Z,10.81
2022-11-05T04:15:48.727Z,10.91
2022-11-05T04:18:15.298Z,10.73
2022-11-05T04:21:00.399Z,10.93
2022-11-05T04:23:45.783Z,11.20
2022-11-05T04:26:12.301Z,10.82
2022-11-05T04:29:07.873Z,10.68
2022-11-05T04:31:35.542Z,10.91
2022-11-05T04:34:02.215Z,10.62
2022-11-05T04:36:28.972Z,10.45
2022-11-05T04:38:55.570Z,10.57
2022-11-05T04:41:22.406Z,10.94
2022-11-05T04:43:49.234Z,10.40
2022-11-05T04:46:15.833Z,10.71
2022-11-05T04:48:42.392Z,10.39
2022-11-05T04:51:08.973Z,10.36
2022-11-05T04:53:35.591Z,10.42
2022-11-05T04:56:23.145Z,10.32
2022-11-05T04:58:50.705Z,10.23
2022-11-05T05:01:20.064Z,10.56
2022-11-05T05:03:50.829Z,10.58
2022-11-05T05:06:18.633Z,10.45
2022-11-05T05:08:47.135Z,10.60
2022-11-05T05:11:16.596Z,10.76
2022-11-05T05:13:43.535Z,10.80
2022-11-05T05:16:19.535Z,10.68
2022-11-05T05:18:46.706Z,10.22
2022-11-05T05:21:32.732Z,10.41
2022-11-05T05:23:59.640Z,10.41
2022-11-05T05:26:26.251Z,10.12
2022-11-05T05:28:53.902Z,10.54
2022-11-05T05:31:22.061Z,10.86
2022-11-05T05:33:48.646Z,10.80
2022-11-05T05:36:15.220Z,10.63
2022-11-05T05:38:43.433Z,10.44
2022-11-05T05:41:09.977Z,10.33
2022-11-05T05:43:36.544Z,10.45
2022-11-05T05:46:05.068Z,10.26
2022-11-05T05:48:31.853Z,10.29
2022-11-05T05:51:06.134Z,10.44
2022-11-05T05:53:33.255Z,10.16
2022-11-05T05:56:00.201Z,10.43
2022-11-05T05:58:31.176Z,10.56
2022-11-05T06:01:01.517Z,10.71
2022-11-05T06:03:28.065Z,10.79
2022-11-05T06:06:00.138Z,10.43
2022-11-05T06:08:26.761Z,10.54
2022-11-05T06:10:53.489Z,10.76
2022-11-05T06:13:20.128Z,10.58
2022-11-05T06:15:46.709Z,10.42
2022-11-05T06:18:13.269Z,10.74
2022-11-05T06:20:39.936Z,11.11
2022-11-05T06:23:06.660Z,10.26
2022-11-05T06:25:38.464Z,10.60
2022-11-05T06:28:07.501Z,10.18
2022-11-05T06:30:34.134Z,10.69
2022-11-05T06:33:05.011Z,10.04
2022-11-05T06:35:32.347Z,10.10
2022-11-05T06:38:02.314Z,10.04
2022-11-05T06:40:28.987Z,9.78
2022-11-05T06:42:55.633Z,9.95
2022-11-05T06:45:22.217Z,9.87
2022-11-05T06:47:48.746Z,10.43
2022-11-05T06:50:16.506Z,10.04
2022-11-05T06:52:43.090Z,10.47
2022-11-05T06:55:09.654Z,10.29
2022-11-05T06:57:38.613Z,10.17
2022-11-05T07:00:08.031Z,10.56
2022-11-05T07:02:34.842Z,10.19
2022-11-05T07:05:01.410Z,10.07
2022-11-05T07:07:28.051Z,9.97
2022-11-05T07:09:54.630Z,10.40
2022-11-05T07:12:21.176Z,10.26
2022-11-05T07:14:47.743Z,10.53
2022-11-05T07:17:17.623Z,10.44
2022-11-05T07:19:44.441Z,10.79
2022-11-05T07:22:10.978Z,10.65
2022-11-05T07:24:37.505Z,10.55
2022-11-05T07:27:04.003Z,10.33
2022-11-05T07:29:30.753Z,10.41
2022-11-05T07:31:57.340Z,10.76
2022-11-05T07:34:23.944Z,10.83
2022-11-05T07:36:50.539Z,10.87
2022-11-05T07:39:17.170Z,10.82
2022-11-05T07:41:43.698Z,10.84
2022-11-05T07:44:11.689Z,11.22
2022-11-05T07:46:38.324Z,10.69
2022-11-05T07:49:05.005Z,10.78
2022-11-05T07:51:31.671Z,11.10
2022-11-05T07:53:58.442Z,11.49
2022-11-05T07:56:25.082Z,11.38
2022-11-05T07:58:51.656Z,11.68
2022-11-05T08:01:18.368Z,11.61
2022-11-05T08:03:45.478Z,11.47
2022-11-05T08:06:12.052Z,11.62
2022-11-05T08:08:38.677Z,12.55
2022-11-05T08:11:06.878Z,12.72
2022-11-05T08:13:34.226Z,12.71
2022-11-05T08:16:02.022Z,13.26
2022-11-05T08:18:32.992Z,13.60
2022-11-05T08:21:01.385Z,13.13
2022-11-05T08:23:29.011Z,13.67
2022-11-05T08:25:56.847Z,14.19
2022-11-05T08:28:26.193Z,14.80
2022-11-05T08:30:55.411Z,14.63
2022-11-05T08:33:23.081Z,14.80
2022-11-05T08:35:50.491Z,14.96
2022-11-05T08:38:19.022Z,15.26
2022-11-05T08:40:53.614Z,15.53
2022-11-05T08:43:20.366Z,15.29
2022-11-05T08:45:46.940Z,15.08
2022-11-05T08:48:16.220Z,15.68
2022-11-05T08:50:44.321Z,15.83
2022-11-05T08:53:11.958Z,15.52
2022-11-05T08:55:41.822Z,15.75
2022-11-05T08:58:18.046Z,15.81
2022-11-05T09:00:47.839Z,15.60
2022-11-05T09:03:15.422Z,15.72
2022-11-05T09:05:42.993Z,15.84
2022-11-05T09:08:19.142Z,15.71
2022-11-05T09:10:47.467Z,15.57
2022-11-05T09:13:18.778Z,15.96
2022-11-05T09:15:47.801Z,16.35
2022-11-05T09:18:15.143Z,16.24
2022-11-05T09:20:42.157Z,16.38
2022-11-05T09:23:11.258Z,17.04
2022-11-05T09:25:38.187Z,16.24
2022-11-05T09:28:14.628Z,16.83
2022-11-05T09:30:45.040Z,17.01
2022-11-05T09:33:12.024Z,17.50
2022-11-05T09:35:40.329Z,17.42
2022-11-05T09:38:07.893Z,17.55
2022-11-05T09:40:48.921Z,17.37
2022-11-05T09:43:21.417Z,17.71
2022-11-05T09:45:53.148Z,17.21
2022-11-05T09:48:24.756Z,17.75
2022-11-05T09:50:53.643Z,17.56
2022-11-05T09:53:23.315Z,17.54
2022-11-05T09:55:54.362Z,17.57
2022-11-05T09:58:44.048Z,17.78
2022-11-05T10:01:15.729Z,17.40
2022-11-05T10:03:49.578Z,17.71
2022-11-05T10:06:22.755Z,17.77
2022-11-05T10:09:22.550Z,17.56
2022-11-05T10:12:06.351Z,17.46
2022-11-05T10:14:38.812Z,17.60
2022-11-05T10:17:26.719Z,17.53
2022-11-05T10:20:07.642Z,17.16
2022-11-05T10:22:34.346Z,17.59
2022-11-05T10:25:00.983Z,17.35
2022-11-05T10:27:35.430Z,17.62
2022-11-05T10:30:02.252Z,17.81
2022-11-05T10:32:32.531Z,17.60
2022-11-05T10:35:02.672Z,17.75
2022-11-05T10:37:31.641Z,18.08
2022-11-05T10:39:58.423Z,17.43
2022-11-05T10:42:36.956Z,17.64
2022-11-05T10:45:06.233Z,18.02
2022-11-05T10:47:35.446Z,17.98
2022-11-05T10:50:15.634Z,17.69
2022-11-05T10:52:51.433Z,18.52
2022-11-05T10:55:36.734Z,18.33
2022-11-05T10:58:18.308Z,17.56
2022-11-05T11:00:51.047Z,17.22
2022-11-05T11:03:38.584Z,16.68
2022-11-05T11:06:24.998Z,16.67
2022-11-05T11:08:54.192Z,16.97
2022-11-05T11:11:39.160Z,17.67
2022-11-05T11:14:19.353Z,17.71
2022-11-05T11:16:50.352Z,17.55
2022-11-05T11:19:30.909Z,17.64
2022-11-05T11:22:03.321Z,17.07
2022-11-05T11:24:36.951Z,17.58
2022-11-05T11:27:09.453Z,17.55
2022-11-05T11:29:41.997Z,17.46
2022-11-05T11:32:15.035Z,17.35
2022-11-05T11:34:44.434Z,17.32
2022-11-05T11:37:19.739Z,17.16
2022-11-05T11:39:54.392Z,17.13
2022-11-05T11:42:27.949Z,17.46
2022-11-05T11:44:55.944Z,16.91
2022-11-05T11:47:22.916Z,16.61
2022-11-05T11:49:52.473Z,16.81
2022-11-05T11:52:28.617Z,16.82
2022-11-05T11:55:13.430Z,16.66
2022-11-05T11:57:52.204Z,17.02
2022-11-05T12:00:20.725Z,16.86
2022-11-05T12:03:31.957Z,16.69
2022-11-05T12:06:01.570Z,16.88
2022-11-05T12:08:33.834Z,16.69
2022-11-05T12:11:28.925Z,16.74
2022-11-05T12:14:04.534Z,16.09
2022-11-05T12:16:39.367Z,16.70
2022-11-05T12:19:29.821Z,16.77
2022-11-05T12:21:56.368Z,16.93
2022-11-05T12:24:50.375Z,16.74
2022-11-05T12:27:32.181Z,16.65
2022-11-05T12:30:07.489Z,16.88
2022-11-05T12:33:04.082Z,16.84
2022-11-05T12:35:30.601Z,16.88
2022-11-05T12:38:15.303Z,16.71
2022-11-05T12:40:47.860Z,17.09
2022-11-05T12:43:44.790Z,17.08
2022-11-05T12:46:21.335Z,16.45
2022-11-05T12:49:23.437Z,16.64
2022-11-05T12:52:03.465Z,16.59
2022-11-05T12:54:50.364Z,16.39
2022-11-05T12:57:18.726Z,16.73
2022-11-05T13:00:14.802Z,16.70
2022-11-05T13:03:19.121Z,16.65
2022-11-05T13:05:53.719Z,16.86
2022-11-05T13:08:33.800Z,16.71
2022-11-05T13:11:04.592Z,16.58
2022-11-05T13:13:34.788Z,16.53
2022-11-05T13:16:25.953Z,16.60
2022-11-05T13:18:57.422Z,16.81
2022-11-05T13:21:26.083Z,16.62
2022-11-05T13:24:02.336Z,16.51
2022-11-05T13:26:51.929Z,16.81
2022-11-05T13:29:29.091Z,16.85
2022-11-05T13:32:04.801Z,16.49
2022-11-05T13:34:37.256Z,16.60
2022-11-05T13:37:25.900Z,16.83
2022-11-05T13:39:56.121Z,16.60
2022-11-05T13:42:50.678Z,16.75
2022-11-05T13:45:46.383Z,16.53
2022-11-05T13:48:40.678Z,16.23
2022-11-05T13:51:29.033Z,16.36
2022-11-05T13:54:29.307Z,16.66
2022-11-05T13:57:19.939Z,16.57
2022-11-05T14:00:05.126Z,16.52
2022-11-05T14:02:45.715Z,16.25
2022-11-05T14:05:21.495Z,16.56
2022-11-05T14:07:49.265Z,16.55
2022-11-05T14:10:35.944Z,16.40
2022-11-05T14:13:27.243Z,16.37
2022-11-05T14:16:10.695Z,16.48
2022-11-05T14:18:43.841Z,16.54
2022-11-05T14:21:53.017Z,16.49
2022-11-05T14:24:22.469Z,16.43
2022-11-05T14:27:00.972Z,16.38
2022-11-05T14:29:42.471Z,16.40
2022-11-05T14:32:20.844Z,16.58
2022-11-05T14:35:04.120Z,16.34
2022-11-05T14:37:39.442Z,16.29
2022-11-05T14:40:21.353Z,16.49
2022-11-05T14:42:56.679Z,16.45
2022-11-05T14:45:27.070Z,16.52
2022-11-05T14:47:59.893Z,16.57
2022-11-05T14:50:42.591Z,16.18
2022-11-05T14:53:25.306Z,16.50
2022-11-05T14:56:19.064Z,16.52
2022-11-05T14:58:46.720Z,16.29
2022-11-05T15:01:13.257Z,16.39
2022-11-05T15:03:45.527Z,16.08
2022-11-05T15:06:39.193Z,15.99
2022-11-05T15:09:19.144Z,16.25
2022-11-05T15:11:54.663Z,16.21
2022-11-05T15:14:28.693Z,16.22
2022-11-05T15:16:59.717Z,16.36
2022-11-05T15:19:31.501Z,16.35
2022-11-05T15:22:03.160Z,16.26
2022-11-05T15:24:31.312Z,16.16
2022-11-05T15:27:24.048Z,16.23
2022-11-05T15:29:50.680Z,16.17
2022-11-05T15:32:19.046Z,16.25
2022-11-05T15:34:53.786Z,16.10
2022-11-05T15:37:25.875Z,16.09
2022-11-05T15:39:54.800Z,16.12
2022-11-05T15:42:23.929Z,16.28
2022-11-05T15:45:00.747Z,16.00
2022-11-05T15:47:32.014Z,16.11
2022-11-05T15:50:07.468Z,16.13
2022-11-05T15:52:48.519Z,16.03
2022-11-05T15:55:15.139Z,16.14
2022-11-05T15:57:50.965Z,16.18
2022-11-05T16:00:22.794Z,15.79
2022-11-05T16:02:54.853Z,15.79
2022-11-05T16:05:22.678Z,16.19
2022-11-05T16:07:49.371Z,16.21
2022-11-05T16:10:23.363Z,16.17
2022-11-05T16:12:50.620Z,15.84
2022-11-05T16:15:20.902Z,16.06
2022-11-05T16:17:58.947Z,15.88
2022-11-05T16:20:34.575Z,15.28
2022-11-05T16:23:07.025Z,15.56
2022-11-05T16:25:42.167Z,15.44
2022-11-05T16:28:26.924Z,15.19
2022-11-05T16:30:56.418Z,15.19
2022-11-05T16:33:24.823Z,15.60
2022-11-05T16:35:51.496Z,15.55
2022-11-05T16:38:19.562Z,15.24
2022-11-05T16:40:46.164Z,15.51
2022-11-05T16:43:20.019Z,14.89
2022-11-05T16:45:47.101Z,14.83
2022-11-05T16:48:15.049Z,15.10
2022-11-05T16:50:42.539Z,15.15
2022-11-05T16:53:09.251Z,15.30
2022-11-05T16:55:38.556Z,15.16
2022-11-05T16:58:07.027Z,14.97
2022-11-05T17:00:33.823Z,15.19
2022-11-05T17:03:00.517Z,15.10
2022-11-05T17:05:30.059Z,14.79
2022-11-05T17:07:57.308Z,14.98
2022-11-05T17:10:25.584Z,15.17
2022-11-05T17:12:52.367Z,16.08
2022-11-05T17:15:27.808Z,15.13
2022-11-05T17:17:55.272Z,15.32
2022-11-05T17:20:40.258Z,15.35
2022-11-05T17:23:10.567Z,15.10
2022-11-05T17:25:38.694Z,15.34
2022-11-05T17:28:05.900Z,14.86
2022-11-05T17:30:32.815Z,14.33
2022-11-05T17:32:59.468Z,15.56
2022-11-05T17:35:26.946Z,16.04
2022-11-05T17:37:53.554Z,14.38
2022-11-05T17:40:22.487Z,14.45
2022-11-05T17:42:51.203Z,14.00
2022-11-05T17:45:18.540Z,13.77
2022-11-05T17:47:45.205Z,14.14
2022-11-05T17:50:13.960Z,14.24
2022-11-05T17:52:40.632Z,14.10
2022-11-05T17:55:16.091Z,13.93
2022-11-05T17:57:50.946Z,14.11
2022-11-05T18:00:21.406Z,13.68
2022-11-05T18:02:49.568Z,14.01
2022-11-05T18:05:20.743Z,13.97
2022-11-05T18:07:47.482Z,13.97
2022-11-05T18:10:15.075Z,13.91
2022-11-05T18:12:42.858Z,13.99
2022-11-05T18:15:09.827Z,13.88
2022-11-05T18:17:36.697Z,13.70
2022-11-05T18:20:04.725Z,13.66
2022-11-05T18:22:31.341Z,13.71
2022-11-05T18:24:58.009Z,13.88
2022-11-05T18:27:27.483Z,13.71
2022-11-05T18:29:54.885Z,13.97
2022-11-05T18:32:21.551Z,13.82
2022-11-05T18:34:48.126Z,13.53
2022-11-05T18:37:14.828Z,13.64
2022-11-05T18:39:41.805Z,13.64
2022-11-05T18:42:08.572Z,13.98
2022-11-05T18:44:39.222Z,14.03
2022-11-05T18:47:06.875Z,13.84
2022-11-05T18:49:33.442Z,13.99
2022-11-05T18:52:00.040Z,14.01
2022-11-05T18:54:26.773Z,13.65
2022-11-05T18:56:53.482Z,13.58
2022-11-05T18:59:38.653Z,13.65
2022-11-05T19:02:07.973Z,14.13
2022-11-05T19:04:36.048Z,13.99
2022-11-05T19:07:05.432Z,14.12
2022-11-05T19:09:37.127Z,14.97
2022-11-05T19:12:05.335Z,17.15
2022-11-05T19:14:32.816Z,15.18
2022-11-05T19:17:00.573Z,14.48
2022-11-05T19:19:30.227Z,14.66
2022-11-05T19:21:56.844Z,14.42
2022-11-05T19:24:23.616Z,14.38
2022-11-05T19:26:50.434Z,14.30
2022-11-05T19:29:17.077Z,13.83
2022-11-05T19:31:44.564Z,14.23
2022-11-05T19:34:13.097Z,14.18
2022-11-05T19:36:39.682Z,14.03
2022-11-05T19:39:12.084Z,13.97
2022-11-05T19:41:38.634Z,14.14
2022-11-05T19:44:05.324Z,14.47
2022-11-05T19:46:33.256Z,14.51
2022-11-05T19:49:01.395Z,14.13
2022-11-05T19:51:30.889Z,14.22
2022-11-05T19:53:59.868Z,14.50
2022-11-05T19:56:29.746Z,14.29
2022-11-05T19:58:57.175Z,14.38
2022-11-05T20:01:25.330Z,14.43
2022-11-05T20:03:52.544Z,14.15
2022-11-05T20:06:26.441Z,14.54
2022-11-05T20:09:19.906Z,14.22
2022-11-05T20:11:40.139Z,14.08
2022-11-05T20:14:07.768Z,14.35
2022-11-05T20:16:39.100Z,14.17
2022-11-05T20:19:11.352Z,14.34
2022-11-05T20:21:38.496Z,14.66
2022-11-05T20:24:05.768Z,14.47
2022-11-05T20:26:32.740Z,14.29
2022-11-05T20:28:59.675Z,14.56
2022-11-05T20:31:26.226Z,14.13
2022-11-05T20:33:53.386Z,14.54
2022-11-05T20:36:24.795Z,14.16
2022-11-05T20:38:57.895Z,14.17
2022-11-05T20:41:25.935Z,13.92
2022-11-05T20:43:52.518Z,14.32
2022-11-05T20:46:21.053Z,14.09
2022-11-05T20:48:50.889Z,14.33
2022-11-05T20:51:22.972Z,14.56
2022-11-05T20:53:54.778Z,14.38
2022-11-05T20:56:24.778Z,14.24
2022-11-05T20:58:52.432Z,14.17
2022-11-05T21:01:20.018Z,14.55
2022-11-05T21:03:47.642Z,14.48
2022-11-05T21:06:14.524Z,14.51
2022-11-05T21:08:41.185Z,14.48
2022-11-05T21:11:08.324Z,14.12
2022-11-05T21:13:34.943Z,14.35
2022-11-05T21:16:01.884Z,14.37
2022-11-05T21:18:30.666Z,14.31
2022-11-05T21:20:57.811Z,14.46
2022-11-05T21:23:24.322Z,14.82
2022-11-05T21:25:51.425Z,14.15
2022-11-05T21:28:18.014Z,14.14
2022-11-05T21:30:46.109Z,14.26
2022-11-05T21:33:14.776Z,14.25
2022-11-05T21:35:44.521Z,14.39
2022-11-05T21:38:13.200Z,14.57
2022-11-05T21:40:40.822Z,14.59
2022-11-05T21:43:07.901Z,14.16
2022-11-05T21:45:34.537Z,14.32
2022-11-05T21:48:01.033Z,14.38
2022-11-05T21:50:46.346Z,14.12
2022-11-05T21:53:33.518Z,14.14
2022-11-05T21:56:18.646Z,14.74
2022-11-05T21:59:03.829Z,14.72
2022-11-05T22:01:31.702Z,14.45
2022-11-05T22:04:02.915Z,14.17
2022-11-05T22:06:33.396Z,14.30
2022-11-05T22:09:00.145Z,14.19
2022-11-05T22:11:26.726Z,14.10
2022-11-05T22:13:53.564Z,14.24
2022-11-05T22:16:20.291Z,13.93
2022-11-05T22:18:46.861Z,14.34
2022-11-05T22:21:18.522Z,13.97
2022-11-05T22:23:45.419Z,14.35
2022-11-05T22:26:11.944Z,14.44
2022-11-05T22:28:38.505Z,14.54
2022-11-05T22:31:12.009Z,14.18
2022-11-05T22:33:38.541Z,14.35
2022-11-05T22:36:05.346Z,14.41
2022-11-05T22:38:31.904Z,14.27
2022-11-05T22:40:58.532Z,14.30
2022-11-05T22:43:25.106Z,14.44
2022-11-05T22:45:51.661Z,14.44
2022-11-05T22:48:20.777Z,14.63
2022-11-05T22:50:47.389Z,14.13
2022-11-05T22:53:13.999Z,14.49
2022-11-05T22:55:40.579Z,14.58
2022-11-05T22:58:07.161Z,14.65
2022-11-05T23:00:36.739Z,14.64
2022-11-05T23:03:03.615Z,14.44
2022-11-05T23:05:30.290Z,14.18
2022-11-05T23:08:15.856Z,14.41
2022-11-05T23:11:01.267Z,13.92
2022-11-05T23:13:27.847Z,13.94
2022-11-05T23:16:13.198Z,14.06
2022-11-05T23:19:08.965Z,14.52
2022-11-05T23:21:53.884Z,14.29
2022-11-05T23:24:20.488Z,14.18
2022-11-05T23:26:49.835Z,14.47
2022-11-05T23:29:27.038Z,13.92
2022-11-05T23:32:12.464Z,14.04
2022-11-05T23:34:39.159Z,13.96
2022-11-05T23:37:24.474Z,14.14
2022-11-05T23:39:51.298Z,14.01
2022-11-05T23:42:36.748Z,14.41
2022-11-05T23:45:23.588Z,14.16
2022-11-05T23:48:08.378Z,14.24
2022-11-05T23:50:39.477Z,14.13
2022-11-05T23:53:06.530Z,14.18
2022-11-05T23:55:33.112Z,13.97
2022-11-05T23:57:59.732Z,13.86
